sensor_id;sensor_type;location;lat;lon;timestamp;P1;durP1;ratioP1;P2;durP2;ratioP2
9506;SDS011;4791;47.528;9.372;2023-07-13T00:13:29;7.63;;;3.85;;
9506;SDS011;4791;47.528;9.372;2023-07-13T00:28:30;5.97;;;3.60;;
9506;SDS011;4791;47.528;9.372;2023-07-13T00:43:34;7.82;;;3.28;;
9506;SDS011;4791;47.528;9.372;2023-07-13T00:58:35;4.80;;;3.28;;
9506;SDS011;4791;47.528;9.372;2023-07-13T01:13:35;5.55;;;3.67;;
9506;SDS011;4791;47.528;9.372;2023-07-13T01:28:36;5.75;;;3.55;;
9506;SDS011;4791;47.528;9.372;2023-07-13T01:43:37;6.47;;;3.67;;
9506;SDS011;4791;47.528;9.372;2023-07-13T01:58:38;6.43;;;3.70;;
9506;SDS011;4791;47.528;9.372;2023-07-13T02:13:38;10.17;;;4.60;;
9506;SDS011;4791;47.528;9.372;2023-07-13T02:28:41;5.00;;;3.60;;
9506;SDS011;4791;47.528;9.372;2023-07-13T02:43:41;6.15;;;3.90;;
9506;SDS011;4791;47.528;9.372;2023-07-13T02:58:41;5.25;;;4.10;;
9506;SDS011;4791;47.528;9.372;2023-07-13T03:13:44;8.13;;;4.23;;
9506;SDS011;4791;47.528;9.372;2023-07-13T03:28:45;6.33;;;4.00;;
9506;SDS011;4791;47.528;9.372;2023-07-13T03:43:45;6.72;;;4.20;;
9506;SDS011;4791;47.528;9.372;2023-07-13T03:58:48;4.47;;;3.30;;
9506;SDS011;4791;47.528;9.372;2023-07-13T04:13:49;6.13;;;4.13;;
9506;SDS011;4791;47.528;9.372;2023-07-13T04:28:52;5.37;;;3.77;;
9506;SDS011;4791;47.528;9.372;2023-07-13T04:43:53;8.30;;;4.38;;
9506;SDS011;4791;47.528;9.372;2023-07-13T04:58:56;6.37;;;3.70;;
9506;SDS011;4791;47.528;9.372;2023-07-13T05:13:56;6.83;;;3.60;;
9506;SDS011;4791;47.528;9.372;2023-07-13T05:28:56;5.67;;;3.40;;
9506;SDS011;4791;47.528;9.372;2023-07-13T05:43:57;7.07;;;4.10;;
9506;SDS011;4791;47.528;9.372;2023-07-13T05:58:57;8.87;;;4.10;;
9506;SDS011;4791;47.528;9.372;2023-07-13T06:13:58;5.97;;;4.10;;
9506;SDS011;4791;47.528;9.372;2023-07-13T06:28:58;8.20;;;4.30;;
9506;SDS011;4791;47.528;9.372;2023-07-13T06:43:58;6.47;;;4.43;;
9506;SDS011;4791;47.528;9.372;2023-07-13T06:58:59;6.07;;;4.13;;
9506;SDS011;4791;47.528;9.372;2023-07-13T07:13:59;6.38;;;4.88;;
9506;SDS011;4791;47.528;9.372;2023-07-13T07:29:00;4.70;;;3.67;;
9506;SDS011;4791;47.528;9.372;2023-07-13T07:44:00;8.23;;;4.83;;
9506;SDS011;4791;47.528;9.372;2023-07-13T07:59:01;4.70;;;3.87;;
9506;SDS011;4791;47.528;9.372;2023-07-13T08:14:03;4.38;;;3.17;;
9506;SDS011;4791;47.528;9.372;2023-07-13T08:29:06;7.97;;;4.30;;
9506;SDS011;4791;47.528;9.372;2023-07-13T08:59:30;5.32;;;3.20;;
9506;SDS011;4791;47.528;9.372;2023-07-13T09:14:34;6.80;;;2.80;;
9506;SDS011;4791;47.528;9.372;2023-07-13T09:29:49;5.37;;;2.57;;
9506;SDS011;4791;47.528;9.372;2023-07-13T09:45:01;7.10;;;2.30;;
9506;SDS011;4791;47.528;9.372;2023-07-13T10:00:18;5.40;;;2.00;;
9506;SDS011;4791;47.528;9.372;2023-07-13T10:15:22;2.88;;;1.92;;
9506;SDS011;4791;47.528;9.372;2023-07-13T10:30:29;4.00;;;1.90;;
9506;SDS011;4791;47.528;9.372;2023-07-13T10:45:33;4.40;;;1.73;;
9506;SDS011;4791;47.528;9.372;2023-07-13T11:00:43;5.27;;;2.00;;
9506;SDS011;4791;47.528;9.372;2023-07-13T11:15:47;6.87;;;2.37;;
9506;SDS011;4791;47.528;9.372;2023-07-13T11:45:57;8.70;;;3.00;;
9506;SDS011;4791;47.528;9.372;2023-07-13T12:00:58;5.80;;;3.00;;
9506;SDS011;4791;47.528;9.372;2023-07-13T12:16:10;5.37;;;2.70;;
9506;SDS011;4791;47.528;9.372;2023-07-13T12:46:34;5.00;;;2.03;;
9506;SDS011;4791;47.528;9.372;2023-07-13T13:01:35;4.20;;;2.20;;
9506;SDS011;4791;47.528;9.372;2023-07-13T13:31:54;4.50;;;2.07;;
9506;SDS011;4791;47.528;9.372;2023-07-13T13:46:55;5.03;;;2.03;;
9506;SDS011;4791;47.528;9.372;2023-07-13T14:01:56;4.63;;;2.15;;
9506;SDS011;4791;47.528;9.372;2023-07-13T14:17:00;5.20;;;2.40;;
9506;SDS011;4791;47.528;9.372;2023-07-13T14:32:00;2.40;;;1.60;;
9506;SDS011;4791;47.528;9.372;2023-07-13T14:47:02;3.17;;;1.70;;
9506;SDS011;4791;47.528;9.372;2023-07-13T15:02:17;6.77;;;2.10;;
9506;SDS011;4791;47.528;9.372;2023-07-13T15:17:38;7.47;;;1.93;;
9506;SDS011;4791;47.528;9.372;2023-07-13T15:32:45;3.50;;;1.87;;
9506;SDS011;4791;47.528;9.372;2023-07-13T15:47:46;3.57;;;1.87;;
9506;SDS011;4791;47.528;9.372;2023-07-13T16:02:48;5.50;;;1.70;;
9506;SDS011;4791;47.528;9.372;2023-07-13T16:17:49;3.90;;;1.70;;
9506;SDS011;4791;47.528;9.372;2023-07-13T16:32:52;3.03;;;1.40;;
9506;SDS011;4791;47.528;9.372;2023-07-13T16:47:56;2.37;;;1.30;;
9506;SDS011;4791;47.528;9.372;2023-07-13T17:03:01;3.23;;;1.70;;
9506;SDS011;4791;47.528;9.372;2023-07-13T17:18:05;4.10;;;1.40;;
9506;SDS011;4791;47.528;9.372;2023-07-13T17:33:11;4.63;;;1.70;;
9506;SDS011;4791;47.528;9.372;2023-07-13T17:48:30;2.80;;;1.43;;
9506;SDS011;4791;47.528;9.372;2023-07-13T18:03:31;2.83;;;1.27;;
9506;SDS011;4791;47.528;9.372;2023-07-13T18:18:31;2.63;;;1.30;;
9506;SDS011;4791;47.528;9.372;2023-07-13T18:33:34;2.90;;;1.30;;
9506;SDS011;4791;47.528;9.372;2023-07-13T18:48:37;3.07;;;1.63;;
9506;SDS011;4791;47.528;9.372;2023-07-13T19:03:37;4.33;;;1.80;;
9506;SDS011;4791;47.528;9.372;2023-07-13T19:18:38;3.03;;;1.60;;
9506;SDS011;4791;47.528;9.372;2023-07-13T19:33:39;4.33;;;1.83;;
9506;SDS011;4791;47.528;9.372;2023-07-13T19:48:39;5.07;;;1.92;;
9506;SDS011;4791;47.528;9.372;2023-07-13T20:03:42;3.23;;;1.60;;
9506;SDS011;4791;47.528;9.372;2023-07-13T20:18:45;3.93;;;1.60;;
9506;SDS011;4791;47.528;9.372;2023-07-13T20:33:47;4.33;;;2.03;;
9506;SDS011;4791;47.528;9.372;2023-07-13T20:48:48;2.60;;;1.70;;
9506;SDS011;4791;47.528;9.372;2023-07-13T21:03:53;6.47;;;2.00;;
9506;SDS011;4791;47.528;9.372;2023-07-13T21:18:56;3.13;;;1.90;;
9506;SDS011;4791;47.528;9.372;2023-07-13T21:33:59;5.57;;;2.20;;
9506;SDS011;4791;47.528;9.372;2023-07-13T21:49:02;4.60;;;2.10;;
9506;SDS011;4791;47.528;9.372;2023-07-13T22:04:03;3.70;;;2.37;;
9506;SDS011;4791;47.528;9.372;2023-07-13T22:19:12;4.50;;;2.30;;
9506;SDS011;4791;47.528;9.372;2023-07-13T22:34:15;3.33;;;1.70;;
9506;SDS011;4791;47.528;9.372;2023-07-13T22:49:21;3.57;;;2.30;;
9506;SDS011;4791;47.528;9.372;2023-07-13T23:04:33;3.53;;;2.30;;
9506;SDS011;4791;47.528;9.372;2023-07-13T23:19:34;4.78;;;2.15;;
9506;SDS011;4791;47.528;9.372;2023-07-13T23:34:35;4.88;;;2.83;;
9506;SDS011;4791;47.528;9.372;2023-07-13T23:49:36;7.40;;;3.38;;
